Darstellungsparameter: Aktuell verwendete Einstellungen:
Skalierung der Graphiken ... ?
xyx+y,   Skalierungsfaktor:      Skalierung: Modus: x, Faktor: 1
Darstellungszeitraum ... ?
Vom - - bis: - -   Zeitraum: 18.02.2019 - 18.02.2019
Min/Max/Avg-Anzeige ... ?
Zeige MMA aktuell
Zeige MMA Monat
Zeige MMA alles
Zeige --A aktuell
Zeige --A Monat
Zeige --A alles
Keine MMA-Anzeige
MMA:
Minimum Maximum Average (ber die Originaldaten)
MMA-Basis: 18.02.2019 - 18.02.2019
Quicknavigation für Darstellung... ?
Tage:      1T, 2T, 3T, 5T -1T -2T -3T -5T +1T +2T +3T +5T
Wochen: 1W, 2W, 3W -1W -2W -3W +1W +2W +3W
Monate: 1M, 3M, 6M -1M -3M -6M +1M +3M +6M
Jahre:    1J, 3J, 5J, 10J -1J -3J -5J -10J +1J +3J +5J +10J
Nutze für die Darstellung ... ?
Originaldaten oder Mittelwerte auf ...
Stundenbasis Tagesbasis Wochenbasis
Monatsbasis Jahresbasis      Datenbasis: Original-Daten
Darstellen als:
Statistik (Auto) Statistik J:M      Darstellung:
Zur Graphik,    zurück zur Übersicht aller Sensoren.
 
Tabellarische Datenbersicht: ?
 
Sensor: Nr:Datum:Temp:Feuchte:Taupunkt:
Aussen-T/F 1 18-02-2019 00:00:00 1.7 C 92 % 0.54 C
2 18-02-2019 00:05:00 1.7 C 92 % 0.54 C
3 18-02-2019 00:10:00 1.8 C 92 % 0.64 C
4 18-02-2019 00:15:00 1.9 C 92 % 0.74 C
5 18-02-2019 00:20:00 1.7 C 91 % 0.39 C
6 18-02-2019 00:25:00 1.5 C 91 % 0.19 C
7 18-02-2019 00:30:00 1.4 C 91 % 0.1 C
8 18-02-2019 00:35:00 1.2 C 91 % -0.1 C
9 18-02-2019 00:40:00 1.3 C 92 % 0.15 C
10 18-02-2019 00:45:00 1.2 C 92 % 0.05 C
11 18-02-2019 00:50:00 1.1 C 92 % -0.05 C
12 18-02-2019 00:55:00 1.1 C 92 % -0.05 C
13 18-02-2019 01:00:00 0.9 C 92 % -0.25 C
14 18-02-2019 01:05:00 0.9 C 92 % -0.25 C
15 18-02-2019 01:10:00 0.9 C 93 % -0.1 C
16 18-02-2019 01:15:00 0.7 C 92 % -0.45 C
17 18-02-2019 01:20:00 0.5 C 92 % -0.65 C
18 18-02-2019 01:25:00 0.4 C 92 % -0.74 C
19 18-02-2019 01:30:00 0.4 C 93 % -0.6 C
20 18-02-2019 01:35:00 0.3 C 93 % -0.7 C
21 18-02-2019 01:40:00 0.3 C 93 % -0.7 C
22 18-02-2019 01:45:00 0.3 C 93 % -0.7 C
23 18-02-2019 01:50:00 0.2 C 93 % -0.79 C
24 18-02-2019 01:55:00 0.1 C 93 % -0.89 C
25 18-02-2019 02:00:00 0.1 C 93 % -0.89 C
Sensor: Nr:Datum:Temp:Feuchte:Taupunkt:
Aussen-T/F 26 18-02-2019 02:05:00 0 C 93 % -0.99 C
27 18-02-2019 02:10:00 0 C 93 % -0.99 C
28 18-02-2019 02:15:00 0.1 C 94 % -0.75 C
29 18-02-2019 02:20:00 0.1 C 94 % -0.75 C
30 18-02-2019 02:25:00 0.1 C 94 % -0.75 C
31 18-02-2019 02:30:00 0.1 C 94 % -0.75 C
32 18-02-2019 02:35:00 0.2 C 94 % -0.65 C
33 18-02-2019 02:40:00 0.2 C 94 % -0.65 C
34 18-02-2019 02:45:00 0.2 C 94 % -0.65 C
35 18-02-2019 02:50:00 0.1 C 94 % -0.75 C
36 18-02-2019 02:55:00 -0.2 C 94 % -1.05 C
37 18-02-2019 03:00:00 -0.3 C 94 % -1.15 C
38 18-02-2019 03:05:00 -0.3 C 94 % -1.15 C
39 18-02-2019 03:10:00 -0.3 C 94 % -1.15 C
40 18-02-2019 03:15:00 -0.3 C 94 % -1.15 C
41 18-02-2019 03:20:00 -0.4 C 94 % -1.25 C
42 18-02-2019 03:25:00 -0.4 C 94 % -1.25 C
43 18-02-2019 03:30:00 -0.4 C 94 % -1.25 C
44 18-02-2019 03:35:00 -0.4 C 94 % -1.25 C
45 18-02-2019 03:40:00 -0.4 C 95 % -1.1 C
46 18-02-2019 03:45:00 -0.5 C 94 % -1.34 C
47 18-02-2019 03:50:00 -0.6 C 94 % -1.44 C
48 18-02-2019 03:55:00 -0.7 C 94 % -1.54 C
49 18-02-2019 04:00:00 -0.7 C 94 % -1.54 C
50 18-02-2019 04:05:00 -0.8 C 94 % -1.64 C
Sensor: Nr:Datum:Temp:Feuchte:Taupunkt:
Aussen-T/F 51 18-02-2019 04:10:00 -0.8 C 94 % -1.64 C
52 18-02-2019 04:15:00 -0.8 C 94 % -1.64 C
53 18-02-2019 04:20:00 -0.9 C 94 % -1.74 C
54 18-02-2019 04:25:00 -0.8 C 95 % -1.5 C
55 18-02-2019 04:30:00 -0.7 C 95 % -1.4 C
56 18-02-2019 04:35:00 -0.7 C 95 % -1.4 C
57 18-02-2019 04:40:00 -0.7 C 95 % -1.4 C
58 18-02-2019 04:45:00 -0.7 C 95 % -1.4 C
59 18-02-2019 04:50:00 -0.8 C 95 % -1.5 C
60 18-02-2019 04:55:00 -0.9 C 95 % -1.6 C
61 18-02-2019 05:00:00 -1 C 95 % -1.7 C
62 18-02-2019 05:05:00 -1.1 C 95 % -1.8 C
63 18-02-2019 05:10:00 -1.1 C 95 % -1.8 C
64 18-02-2019 05:15:00 -1.2 C 95 % -1.9 C
65 18-02-2019 05:20:00 -1.2 C 95 % -1.9 C
66 18-02-2019 05:25:00 -1.3 C 95 % -2 C
67 18-02-2019 05:30:00 -1.2 C 95 % -1.9 C
68 18-02-2019 05:35:00 -1.2 C 95 % -1.9 C
69 18-02-2019 05:40:00 -1.2 C 95 % -1.9 C
70 18-02-2019 05:45:00 -1.3 C 95 % -2 C
71 18-02-2019 05:50:00 -1.3 C 95 % -2 C
72 18-02-2019 05:55:00 -1.5 C 95 % -2.19 C
73 18-02-2019 06:00:00 -1.5 C 95 % -2.19 C
74 18-02-2019 06:05:00 -1.4 C 95 % -2.1 C
75 18-02-2019 06:10:00 -1.4 C 95 % -2.1 C
Sensor: Nr:Datum:Temp:Feuchte:Taupunkt:
Aussen-T/F 76 18-02-2019 06:15:00 -1.4 C 95 % -2.1 C
77 18-02-2019 06:20:00 -1.6 C 95 % -2.29 C
78 18-02-2019 06:25:00 -1.4 C 95 % -2.1 C
79 18-02-2019 06:30:00 -1.4 C 95 % -2.1 C
80 18-02-2019 06:35:00 -1.4 C 95 % -2.1 C
81 18-02-2019 06:40:00 -1.6 C 95 % -2.29 C
82 18-02-2019 06:45:00 -1.7 C 95 % -2.39 C
83 18-02-2019 06:50:00 -1.6 C 95 % -2.29 C
84 18-02-2019 06:55:00 -1.3 C 95 % -2 C
85 18-02-2019 07:00:00 -1.3 C 96 % -1.85 C
86 18-02-2019 07:05:00 -1.3 C 95 % -2 C
87 18-02-2019 07:10:00 -1.5 C 95 % -2.19 C
88 18-02-2019 07:15:00 -1.7 C 95 % -2.39 C
89 18-02-2019 07:20:00 -1.7 C 95 % -2.39 C
90 18-02-2019 07:25:00 -1.6 C 95 % -2.29 C
91 18-02-2019 07:30:00 -1.6 C 95 % -2.29 C
92 18-02-2019 07:35:00 -1.7 C 95 % -2.39 C
93 18-02-2019 07:40:00 -1.8 C 95 % -2.49 C
94 18-02-2019 07:45:00 -1.8 C 95 % -2.49 C
95 18-02-2019 07:50:00 -1.9 C 95 % -2.59 C
96 18-02-2019 07:55:00 -1.9 C 95 % -2.59 C
97 18-02-2019 08:00:00 -1.9 C 95 % -2.59 C
98 18-02-2019 08:05:00 -1.9 C 95 % -2.59 C
99 18-02-2019 08:10:00 -1.9 C 95 % -2.59 C
100 18-02-2019 08:15:00 -1.9 C 95 % -2.59 C
Sensor: Nr:Datum:Temp:Feuchte:Taupunkt:
Aussen-T/F 101 18-02-2019 08:20:00 -1.9 C 95 % -2.59 C
102 18-02-2019 08:25:00 -1.8 C 95 % -2.49 C
103 18-02-2019 08:30:00 -1.8 C 95 % -2.49 C
104 18-02-2019 08:35:00 -1.7 C 96 % -2.25 C
105 18-02-2019 08:40:00 -1.4 C 96 % -1.95 C
106 18-02-2019 08:45:00 -1.2 C 96 % -1.75 C
107 18-02-2019 08:50:00 -1.1 C 96 % -1.66 C
108 18-02-2019 08:55:00 -1.1 C 96 % -1.66 C
109 18-02-2019 09:00:00 -0.9 C 96 % -1.46 C
110 18-02-2019 09:05:00 -0.6 C 96 % -1.16 C
111 18-02-2019 09:10:00 -0.5 C 96 % -1.06 C
112 18-02-2019 09:15:00 -0.6 C 96 % -1.16 C
113 18-02-2019 09:20:00 -0.6 C 96 % -1.16 C
114 18-02-2019 09:25:00 -0.5 C 96 % -1.06 C
115 18-02-2019 09:30:00 -0.4 C 96 % -0.96 C
116 18-02-2019 09:35:00 -0.4 C 96 % -0.96 C
117 18-02-2019 09:40:00 -0.5 C 96 % -1.06 C
118 18-02-2019 09:45:00 -0.6 C 96 % -1.16 C
119 18-02-2019 09:50:00 -0.6 C 96 % -1.16 C
120 18-02-2019 09:55:00 -0.6 C 96 % -1.16 C
121 18-02-2019 10:00:00 -0.5 C 96 % -1.06 C
122 18-02-2019 10:05:00 -0.5 C 96 % -1.06 C
123 18-02-2019 10:10:00 -0.4 C 96 % -0.96 C
124 18-02-2019 10:15:00 -0.3 C 96 % -0.86 C
125 18-02-2019 10:20:00 -0.1 C 96 % -0.66 C
Sensor: Nr:Datum:Temp:Feuchte:Taupunkt:
Aussen-T/F 126 18-02-2019 10:25:00 0.1 C 96 % -0.46 C
127 18-02-2019 10:30:00 0.2 C 96 % -0.36 C
128 18-02-2019 10:35:00 0.3 C 96 % -0.26 C
129 18-02-2019 10:40:00 0.5 C 96 % -0.06 C
130 18-02-2019 10:45:00 0.7 C 96 % 0.14 C
131 18-02-2019 10:50:00 1 C 97 % 0.58 C
132 18-02-2019 10:55:00 1.3 C 97 % 0.88 C
133 18-02-2019 11:00:00 1.6 C 97 % 1.18 C
134 18-02-2019 11:05:00 1.7 C 97 % 1.28 C
135 18-02-2019 11:10:00 1.9 C 97 % 1.48 C
136 18-02-2019 11:15:00 2.2 C 97 % 1.77 C
137 18-02-2019 11:20:00 2.4 C 97 % 1.97 C
138 18-02-2019 11:25:00 2.7 C 97 % 2.27 C
139 18-02-2019 11:30:00 3 C 97 % 2.57 C
140 18-02-2019 11:35:00 3.3 C 97 % 2.87 C
141 18-02-2019 11:40:00 3.6 C 97 % 3.17 C
142 18-02-2019 11:45:00 3.7 C 96 % 3.12 C
143 18-02-2019 11:50:00 3.9 C 96 % 3.32 C
144 18-02-2019 11:55:00 4.1 C 95 % 3.37 C
145 18-02-2019 12:00:00 4.2 C 95 % 3.47 C
146 18-02-2019 12:05:00 4.4 C 95 % 3.67 C
147 18-02-2019 12:10:00 4.7 C 95 % 3.97 C
148 18-02-2019 12:15:00 4.9 C 95 % 4.17 C
149 18-02-2019 12:20:00 5.3 C 95 % 4.57 C
150 18-02-2019 12:25:00 5.6 C 95 % 4.86 C
Sensor: Nr:Datum:Temp:Feuchte:Taupunkt:
Aussen-T/F 151 18-02-2019 12:30:00 6.1 C 95 % 5.36 C
152 18-02-2019 12:35:00 6.6 C 93 % 5.55 C
153 18-02-2019 12:40:00 7.1 C 92 % 5.89 C
154 18-02-2019 12:45:00 7.5 C 90 % 5.97 C
155 18-02-2019 12:50:00 7.9 C 88 % 6.04 C
156 18-02-2019 12:55:00 8.2 C 87 % 6.17 C
157 18-02-2019 13:00:00 8.3 C 86 % 6.1 C
158 18-02-2019 13:05:00 8.4 C 85 % 6.03 C
159 18-02-2019 13:10:00 8.6 C 84 % 6.05 C
160 18-02-2019 13:15:00 8.8 C 83 % 6.08 C
161 18-02-2019 13:20:00 9 C 83 % 6.27 C
162 18-02-2019 13:25:00 9.3 C 81 % 6.21 C
163 18-02-2019 13:30:00 9.7 C 81 % 6.6 C
164 18-02-2019 13:35:00 10 C 79 % 6.53 C
165 18-02-2019 13:40:00 10.3 C 78 % 6.64 C
166 18-02-2019 13:45:00 10.6 C 76 % 6.55 C
167 18-02-2019 13:50:00 10.9 C 75 % 6.65 C
168 18-02-2019 13:55:00 11.2 C 74 % 6.74 C
169 18-02-2019 14:00:00 11.5 C 73 % 6.84 C
170 18-02-2019 14:05:00 11.6 C 71 % 6.53 C
171 18-02-2019 14:10:00 11.7 C 71 % 6.62 C
172 18-02-2019 14:15:00 11.7 C 71 % 6.62 C
173 18-02-2019 14:20:00 11.6 C 71 % 6.53 C
174 18-02-2019 14:25:00 11.5 C 71 % 6.43 C
175 18-02-2019 14:30:00 11.3 C 72 % 6.44 C
Sensor: Nr:Datum:Temp:Feuchte:Taupunkt:
Aussen-T/F 176 18-02-2019 14:35:00 11.2 C 72 % 6.35 C
177 18-02-2019 14:40:00 11 C 73 % 6.35 C
178 18-02-2019 14:45:00 10.9 C 73 % 6.26 C
179 18-02-2019 14:50:00 11 C 73 % 6.35 C
180 18-02-2019 14:55:00 11.1 C 73 % 6.45 C
181 18-02-2019 15:00:00 11.1 C 73 % 6.45 C
182 18-02-2019 15:05:00 11.2 C 72 % 6.35 C
183 18-02-2019 15:10:00 11.4 C 71 % 6.34 C
184 18-02-2019 15:15:00 11.6 C 71 % 6.53 C
185 18-02-2019 15:20:00 11.7 C 69 % 6.21 C
186 18-02-2019 15:25:00 11.9 C 67 % 5.98 C
187 18-02-2019 15:30:00 12.2 C 65 % 5.82 C
188 18-02-2019 15:35:00 12.4 C 65 % 6.01 C
189 18-02-2019 15:40:00 12.6 C 66 % 6.42 C
190 18-02-2019 15:45:00 12.7 C 60 % 5.14 C
191 18-02-2019 15:50:00 12.9 C 62 % 5.8 C
192 18-02-2019 15:55:00 13 C 62 % 5.9 C
193 18-02-2019 16:00:00 12.9 C 62 % 5.8 C
194 18-02-2019 16:05:00 12.8 C 62 % 5.71 C
195 18-02-2019 16:10:00 12.6 C 61 % 5.29 C
196 18-02-2019 16:15:00 12.4 C 63 % 5.56 C
197 18-02-2019 16:20:00 12.2 C 62 % 5.14 C
198 18-02-2019 16:25:00 11.9 C 63 % 5.09 C
199 18-02-2019 16:30:00 11.7 C 65 % 5.35 C
200 18-02-2019 16:35:00 11.5 C 66 % 5.38 C
Sensor: Nr:Datum:Temp:Feuchte:Taupunkt:
Aussen-T/F 201 18-02-2019 16:40:00 11.3 C 67 % 5.4 C
202 18-02-2019 16:45:00 11.1 C 68 % 5.43 C
203 18-02-2019 16:50:00 10.9 C 68 % 5.23 C
204 18-02-2019 16:55:00 10.8 C 68 % 5.14 C
205 18-02-2019 17:00:00 10.8 C 68 % 5.14 C
206 18-02-2019 17:05:00 10.8 C 68 % 5.14 C
207 18-02-2019 17:10:00 10.8 C 69 % 5.35 C
208 18-02-2019 17:15:00 10.9 C 68 % 5.23 C
209 18-02-2019 17:20:00 10.9 C 68 % 5.23 C
210 18-02-2019 17:25:00 10.8 C 69 % 5.35 C
211 18-02-2019 17:30:00 10.6 C 70 % 5.36 C
212 18-02-2019 17:35:00 10.3 C 70 % 5.08 C
213 18-02-2019 17:40:00 10.1 C 70 % 4.89 C
214 18-02-2019 17:45:00 9.9 C 71 % 4.9 C
215 18-02-2019 17:50:00 9.7 C 72 % 4.9 C
216 18-02-2019 17:55:00 9.5 C 72 % 4.71 C
217 18-02-2019 18:00:00 9.3 C 73 % 4.72 C
218 18-02-2019 18:05:00 9.1 C 73 % 4.52 C
219 18-02-2019 18:10:00 8.9 C 73 % 4.33 C
220 18-02-2019 18:15:00 8.7 C 74 % 4.33 C
221 18-02-2019 18:20:00 8.5 C 74 % 4.14 C
222 18-02-2019 18:25:00 8.3 C 75 % 4.14 C
223 18-02-2019 18:30:00 8.3 C 76 % 4.33 C
224 18-02-2019 18:35:00 8.2 C 76 % 4.23 C
225 18-02-2019 18:40:00 8.1 C 76 % 4.13 C
Sensor: Nr:Datum:Temp:Feuchte:Taupunkt:
Aussen-T/F 226 18-02-2019 18:45:00 8 C 76 % 4.04 C
227 18-02-2019 18:50:00 7.9 C 76 % 3.94 C
228 18-02-2019 18:55:00 7.7 C 75 % 3.56 C
229 18-02-2019 19:00:00 7.5 C 76 % 3.55 C
230 18-02-2019 19:05:00 7.3 C 78 % 3.73 C
231 18-02-2019 19:10:00 7.2 C 79 % 3.81 C
232 18-02-2019 19:15:00 7.1 C 79 % 3.71 C
233 18-02-2019 19:20:00 6.9 C 80 % 3.7 C
234 18-02-2019 19:25:00 6.8 C 81 % 3.77 C
235 18-02-2019 19:30:00 6.8 C 81 % 3.77 C
236 18-02-2019 19:35:00 6.8 C 82 % 3.95 C
237 18-02-2019 19:40:00 6.9 C 81 % 3.87 C
238 18-02-2019 19:45:00 6.9 C 81 % 3.87 C
239 18-02-2019 19:50:00 6.9 C 81 % 3.87 C
240 18-02-2019 19:55:00 6.9 C 81 % 3.87 C
241 18-02-2019 20:00:00 6.8 C 80 % 3.6 C
242 18-02-2019 20:05:00 6.7 C 79 % 3.32 C
243 18-02-2019 20:10:00 6.6 C 79 % 3.23 C
244 18-02-2019 20:15:00 6.4 C 78 % 2.85 C
245 18-02-2019 20:20:00 6.1 C 79 % 2.74 C
246 18-02-2019 20:25:00 5.8 C 81 % 2.8 C
247 18-02-2019 20:30:00 5.5 C 81 % 2.51 C
248 18-02-2019 20:35:00 5.2 C 82 % 2.39 C
249 18-02-2019 20:40:00 4.9 C 82 % 2.09 C
250 18-02-2019 20:45:00 4.7 C 84 % 2.23 C
Sensor: Nr:Datum:Temp:Feuchte:Taupunkt:
Aussen-T/F 251 18-02-2019 20:50:00 4.6 C 85 % 2.3 C
252 18-02-2019 20:55:00 4.6 C 86 % 2.47 C
253 18-02-2019 21:00:00 4.6 C 86 % 2.47 C
254 18-02-2019 21:05:00 4.6 C 86 % 2.47 C
255 18-02-2019 21:10:00 4.4 C 86 % 2.27 C
256 18-02-2019 21:15:00 4.3 C 86 % 2.17 C
257 18-02-2019 21:20:00 4.3 C 86 % 2.17 C
258 18-02-2019 21:25:00 4.2 C 86 % 2.07 C
259 18-02-2019 21:30:00 4.2 C 86 % 2.07 C
260 18-02-2019 21:35:00 4 C 86 % 1.88 C
261 18-02-2019 21:40:00 3.9 C 86 % 1.78 C
262 18-02-2019 21:45:00 3.8 C 86 % 1.68 C
263 18-02-2019 21:50:00 3.6 C 86 % 1.48 C
264 18-02-2019 21:55:00 3.3 C 86 % 1.19 C
265 18-02-2019 22:00:00 3.2 C 87 % 1.25 C
266 18-02-2019 22:05:00 3 C 87 % 1.05 C
267 18-02-2019 22:10:00 3 C 88 % 1.21 C
268 18-02-2019 22:15:00 2.9 C 89 % 1.27 C
269 18-02-2019 22:20:00 2.9 C 89 % 1.27 C
270 18-02-2019 22:25:00 2.8 C 89 % 1.17 C
271 18-02-2019 22:30:00 2.7 C 89 % 1.07 C
272 18-02-2019 22:35:00 2.7 C 89 % 1.07 C
273 18-02-2019 22:40:00 2.7 C 89 % 1.07 C
274 18-02-2019 22:45:00 2.5 C 89 % 0.88 C
275 18-02-2019 22:50:00 2.4 C 90 % 0.93 C
Sensor: Nr:Datum:Temp:Feuchte:Taupunkt:
Aussen-T/F 276 18-02-2019 22:55:00 2.4 C 90 % 0.93 C
277 18-02-2019 23:00:00 2.3 C 90 % 0.83 C
278 18-02-2019 23:05:00 2.3 C 90 % 0.83 C
279 18-02-2019 23:10:00 2.2 C 91 % 0.89 C
280 18-02-2019 23:15:00 2.3 C 91 % 0.99 C
281 18-02-2019 23:20:00 2.3 C 91 % 0.99 C
282 18-02-2019 23:25:00 2.3 C 91 % 0.99 C
283 18-02-2019 23:30:00 2.2 C 91 % 0.89 C
284 18-02-2019 23:35:00 2.1 C 91 % 0.79 C
285 18-02-2019 23:40:00 2 C 91 % 0.69 C
286 18-02-2019 23:45:00 1.9 C 91 % 0.59 C
287 18-02-2019 23:50:00 1.9 C 91 % 0.59 C
288 18-02-2019 23:55:00 1.8 C 91 % 0.49 C

Legende:
   Min
   Max


Maximal/Minimal-Werte vom 18.02.2019 - 18.02.2019

Sensor Min Max Avg
Temp
(Aussen-T/F)
-1.9 °C
18-02-2019  07:50:00
13 °C
18-02-2019  15:55:00
3.7 °C
Feuchte
(Aussen-T/F)
60 %
18-02-2019  15:45:00
97 %
18-02-2019  10:50:00
86.84 %
Taupunkt
(Aussen-T/F)
-2.59 C
18-02-2019  07:50:00
6.84 C
18-02-2019  14:00:00
1.55 C

Die Daten stammen von einer Davis Vantage Pro 2 Wetter-Station und werden unter Linux mit der Software wview2wettercgi und aufbereitet. Alle Angaben erfolgen ohne Gewähr für ihre Vollständigkeit oder Richtigkeit.
Kontakt: Rainer Krienke krienke@uni-koblenz.de . Meine Webseiten an der Uni Koblenz oder privat.
Version: $Revision: 0.78 $